createdAt,value
2024-02-17T00:01:07.450Z,100.00
2024-02-17T00:03:13.643Z,100.00
2024-02-17T00:05:16.974Z,100.00
2024-02-17T00:07:20.216Z,100.00
2024-02-17T00:09:23.819Z,100.00
2024-02-17T00:11:28.447Z,100.00
2024-02-17T00:13:31.683Z,100.00
2024-02-17T00:15:34.906Z,100.00
2024-02-17T00:17:38.966Z,100.00
2024-02-17T00:19:42.462Z,100.00
2024-02-17T00:21:45.722Z,100.00
2024-02-17T00:23:48.873Z,100.00
2024-02-17T00:25:52.204Z,100.00
2024-02-17T00:27:57.293Z,100.00
2024-02-17T00:30:00.450Z,100.00
2024-02-17T00:32:04.388Z,100.00
2024-02-17T00:34:08.104Z,100.00
2024-02-17T00:36:10.508Z,100.00
2024-02-17T00:38:13.824Z,100.00
2024-02-17T00:40:17.530Z,100.00
2024-02-17T00:42:20.655Z,100.00
2024-02-17T00:44:25.505Z,100.00
2024-02-17T00:46:28.682Z,100.00
2024-02-17T00:48:33.667Z,100.00
2024-02-17T00:50:36.855Z,100.00
2024-02-17T00:52:39.989Z,100.00
2024-02-17T00:54:43.122Z,100.00
2024-02-17T00:56:46.433Z,100.00
2024-02-17T00:58:48.880Z,100.00
2024-02-17T01:00:53.819Z,100.00
2024-02-17T01:02:56.749Z,100.00
2024-02-17T01:04:59.986Z,100.00
2024-02-17T01:07:03.316Z,100.00
2024-02-17T01:09:06.588Z,100.00
2024-02-17T01:11:09.879Z,100.00
2024-02-17T01:13:13.954Z,100.00
2024-02-17T01:15:17.508Z,100.00
2024-02-17T01:17:22.428Z,100.00
2024-02-17T01:19:25.701Z,100.00
2024-02-17T01:21:31.978Z,100.00
2024-02-17T01:23:34.699Z,100.00
2024-02-17T01:25:38.131Z,100.00
2024-02-17T01:27:41.860Z,100.00
2024-02-17T01:29:45.192Z,100.00
2024-02-17T01:31:48.270Z,100.00
2024-02-17T01:33:52.850Z,100.00
2024-02-17T01:35:55.398Z,100.00
2024-02-17T01:37:58.564Z,100.00
2024-02-17T01:40:01.929Z,100.00
2024-02-17T01:42:05.421Z,100.00
2024-02-17T01:44:08.677Z,100.00
2024-02-17T01:46:10.991Z,100.00
2024-02-17T01:48:15.312Z,100.00
2024-02-17T01:50:19.407Z,100.00
2024-02-17T01:52:23.293Z,100.00
2024-02-17T01:54:26.522Z,100.00
2024-02-17T01:56:30.871Z,100.00
2024-02-17T01:58:34.202Z,100.00
2024-02-17T02:00:36.476Z,100.00
2024-02-17T02:02:40.307Z,100.00
2024-02-17T02:04:43.468Z,100.00
2024-02-17T02:06:48.057Z,100.00
2024-02-17T02:08:51.681Z,100.00
2024-02-17T02:10:55.998Z,100.00
2024-02-17T02:12:59.251Z,100.00
2024-02-17T02:15:05.804Z,100.00
2024-02-17T02:17:09.896Z,100.00
2024-02-17T02:19:15.486Z,100.00
2024-02-17T02:21:18.864Z,100.00
2024-02-17T02:23:22.541Z,100.00
2024-02-17T02:25:27.146Z,100.00
2024-02-17T02:27:31.823Z,100.00
2024-02-17T02:29:35.221Z,100.00
2024-02-17T02:31:38.448Z,100.00
2024-02-17T02:33:41.696Z,100.00
2024-02-17T02:35:46.013Z,100.00
2024-02-17T02:37:49.301Z,100.00
2024-02-17T02:39:52.689Z,100.00
2024-02-17T02:41:56.072Z,100.00
2024-02-17T02:44:00.574Z,100.00
2024-02-17T02:46:03.729Z,100.00
2024-02-17T02:48:07.814Z,100.00
2024-02-17T02:50:12.177Z,100.00
2024-02-17T02:52:16.404Z,100.00
2024-02-17T02:54:20.379Z,100.00
2024-02-17T02:56:24.148Z,100.00
2024-02-17T02:58:27.413Z,100.00
2024-02-17T03:00:31.192Z,100.00
2024-02-17T03:02:35.355Z,100.00
2024-02-17T03:04:38.613Z,100.00
2024-02-17T03:06:41.947Z,100.00
2024-02-17T03:08:45.114Z,100.00
2024-02-17T03:10:48.284Z,100.00
2024-02-17T03:12:51.478Z,100.00
2024-02-17T03:14:59.935Z,100.00
2024-02-17T03:17:04.640Z,100.00
2024-02-17T03:19:07.979Z,100.00
2024-02-17T03:21:11.399Z,100.00
2024-02-17T03:23:14.667Z,100.00
2024-02-17T03:25:20.468Z,100.00
2024-02-17T03:27:23.935Z,100.00
2024-02-17T03:29:27.378Z,100.00
2024-02-17T03:31:30.568Z,100.00
2024-02-17T03:33:35.388Z,100.00
2024-02-17T03:35:39.663Z,100.00
2024-02-17T03:37:42.812Z,100.00
2024-02-17T03:39:47.170Z,100.00
2024-02-17T03:41:50.704Z,100.00
2024-02-17T03:43:53.945Z,100.00
2024-02-17T03:45:56.184Z,100.00
2024-02-17T03:47:59.485Z,100.00
2024-02-17T03:50:04.373Z,100.00
2024-02-17T03:52:08.774Z,100.00
2024-02-17T03:54:11.933Z,100.00
2024-02-17T03:56:16.468Z,100.00
2024-02-17T03:58:19.639Z,100.00
2024-02-17T04:00:22.921Z,100.00
2024-02-17T04:02:26.141Z,100.00
2024-02-17T04:04:29.335Z,100.00
2024-02-17T04:06:34.712Z,100.00
2024-02-17T04:08:37.912Z,100.00
2024-02-17T04:10:41.106Z,100.00
2024-02-17T04:12:44.572Z,100.00
2024-02-17T04:14:47.766Z,100.00
2024-02-17T04:16:51.036Z,100.00
2024-02-17T04:18:54.458Z,100.00
2024-02-17T04:20:57.723Z,100.00
2024-02-17T04:23:02.348Z,100.00
2024-02-17T04:25:06.851Z,100.00
2024-02-17T04:27:13.000Z,100.00
2024-02-17T04:29:18.036Z,100.00
2024-02-17T04:31:21.438Z,100.00
2024-02-17T04:33:23.929Z,100.00
2024-02-17T04:35:27.527Z,100.00
2024-02-17T04:37:30.757Z,100.00
2024-02-17T04:39:36.017Z,100.00
2024-02-17T04:41:39.104Z,100.00
2024-02-17T04:43:42.333Z,100.00
2024-02-17T04:45:45.579Z,100.00
2024-02-17T04:47:50.011Z,100.00
2024-02-17T04:49:53.442Z,100.00
2024-02-17T04:51:56.651Z,100.00
2024-02-17T04:53:59.733Z,100.00
2024-02-17T04:56:04.461Z,100.00
2024-02-17T04:58:08.176Z,100.00
2024-02-17T05:00:12.162Z,100.00
2024-02-17T05:02:15.431Z,100.00
2024-02-17T05:04:18.669Z,100.00
2024-02-17T05:06:23.290Z,100.00
2024-02-17T05:08:26.457Z,100.00
2024-02-17T05:10:28.710Z,100.00
2024-02-17T05:12:33.313Z,100.00
2024-02-17T05:14:39.332Z,100.00
2024-02-17T05:16:41.720Z,100.00
2024-02-17T05:18:45.678Z,100.00
2024-02-17T05:20:48.937Z,100.00
2024-02-17T05:22:52.240Z,100.00
2024-02-17T05:24:55.640Z,100.00
2024-02-17T05:26:59.187Z,100.00
2024-02-17T05:29:07.001Z,100.00
2024-02-17T05:31:26.646Z,100.00
2024-02-17T05:33:30.114Z,100.00
2024-02-17T05:35:33.461Z,100.00
2024-02-17T05:37:37.068Z,100.00
2024-02-17T05:39:39.221Z,100.00
2024-02-17T05:41:43.459Z,100.00
2024-02-17T05:43:46.745Z,100.00
2024-02-17T05:45:51.318Z,100.00
2024-02-17T05:47:54.536Z,100.00
2024-02-17T05:49:57.878Z,100.00
2024-02-17T05:52:01.068Z,100.00
2024-02-17T05:54:04.201Z,100.00
2024-02-17T05:56:08.180Z,100.00
2024-02-17T05:58:11.290Z,100.00
2024-02-17T06:00:15.384Z,100.00
2024-02-17T06:02:19.889Z,100.00
2024-02-17T06:04:23.267Z,100.00
2024-02-17T06:06:28.166Z,100.00
2024-02-17T06:08:34.359Z,100.00
2024-02-17T06:10:38.336Z,100.00
2024-02-17T06:12:41.581Z,100.00
2024-02-17T06:14:44.852Z,100.00
2024-02-17T06:16:48.032Z,100.00
2024-02-17T06:19:10.288Z,100.00
2024-02-17T06:21:12.948Z,100.00
2024-02-17T06:23:16.135Z,100.00
2024-02-17T06:25:19.254Z,100.00
2024-02-17T06:27:22.440Z,100.00
2024-02-17T06:29:25.604Z,100.00
2024-02-17T06:31:29.111Z,100.00
2024-02-17T06:33:32.958Z,100.00
2024-02-17T06:35:37.749Z,100.00
2024-02-17T06:37:41.688Z,100.00
2024-02-17T06:39:44.894Z,100.00
2024-02-17T06:41:48.061Z,100.00
2024-02-17T06:43:51.595Z,100.00
2024-02-17T06:45:55.044Z,100.00
2024-02-17T06:47:58.959Z,100.00
2024-02-17T06:50:03.266Z,100.00
2024-02-17T06:52:09.010Z,100.00
2024-02-17T06:54:12.351Z,100.00
2024-02-17T06:56:15.632Z,100.00
2024-02-17T06:58:18.759Z,100.00
2024-02-17T07:00:21.888Z,100.00
2024-02-17T07:02:28.082Z,100.00
2024-02-17T07:04:32.002Z,100.00
2024-02-17T07:06:35.173Z,100.00
2024-02-17T07:08:41.925Z,100.00
2024-02-17T07:10:44.278Z,100.00
2024-02-17T07:12:47.569Z,100.00
2024-02-17T07:14:51.246Z,100.00
2024-02-17T07:16:55.868Z,100.00
2024-02-17T07:19:00.698Z,100.00
2024-02-17T07:21:03.366Z,100.00
2024-02-17T07:23:06.746Z,100.00
2024-02-17T07:25:12.273Z,100.00
2024-02-17T07:27:15.585Z,100.00
2024-02-17T07:29:18.071Z,100.00
2024-02-17T07:31:22.051Z,100.00
2024-02-17T07:33:25.349Z,100.00
2024-02-17T07:35:28.537Z,100.00
2024-02-17T07:37:30.625Z,100.00
2024-02-17T07:39:37.037Z,100.00
2024-02-17T07:41:41.625Z,100.00
2024-02-17T07:43:44.809Z,100.00
2024-02-17T07:45:49.971Z,100.00
2024-02-17T07:47:53.302Z,99.98
2024-02-17T07:49:55.813Z,99.06
2024-02-17T07:51:59.166Z,99.37
2024-02-17T07:54:02.415Z,99.30
2024-02-17T07:56:05.388Z,99.32
2024-02-17T07:58:10.019Z,99.03
2024-02-17T08:00:16.132Z,98.91
2024-02-17T08:02:19.767Z,100.00
2024-02-17T08:04:22.954Z,99.10
2024-02-17T08:06:26.991Z,97.94
2024-02-17T08:08:30.206Z,98.38
2024-02-17T08:10:32.483Z,96.69
2024-02-17T08:12:35.759Z,96.46
2024-02-17T08:14:41.898Z,96.50
2024-02-17T08:16:45.308Z,94.36
2024-02-17T08:18:48.706Z,95.29
2024-02-17T08:20:53.182Z,95.15
2024-02-17T08:22:56.477Z,93.50
2024-02-17T08:24:59.714Z,94.54
2024-02-17T08:27:02.906Z,93.25
2024-02-17T08:29:06.169Z,93.40
2024-02-17T08:31:10.718Z,91.80
2024-02-17T08:33:14.744Z,92.46
2024-02-17T08:35:18.030Z,92.77
2024-02-17T08:37:20.282Z,90.96
2024-02-17T08:39:23.499Z,90.30
2024-02-17T08:41:25.837Z,89.88
2024-02-17T08:43:28.991Z,88.99
2024-02-17T08:45:32.321Z,89.03
2024-02-17T08:47:36.895Z,90.95
2024-02-17T08:49:39.237Z,89.34
2024-02-17T08:51:42.593Z,90.98
2024-02-17T08:53:46.059Z,86.58
2024-02-17T08:55:49.219Z,87.82
2024-02-17T08:57:52.418Z,88.82
2024-02-17T08:59:55.710Z,88.60
2024-02-17T09:01:58.898Z,88.12
2024-02-17T09:04:03.585Z,88.25
2024-02-17T09:06:07.186Z,89.72
2024-02-17T09:08:10.317Z,89.29
2024-02-17T09:10:17.014Z,88.11
2024-02-17T09:12:20.381Z,90.55
2024-02-17T09:14:23.577Z,88.62
2024-02-17T09:16:28.645Z,86.67
2024-02-17T09:18:32.220Z,86.89
2024-02-17T09:20:36.847Z,88.95
2024-02-17T09:22:40.091Z,86.80
2024-02-17T09:24:43.226Z,87.60
2024-02-17T09:26:46.378Z,85.15
2024-02-17T09:28:50.181Z,85.97
2024-02-17T09:30:53.534Z,88.20
2024-02-17T09:32:56.882Z,86.76
2024-02-17T09:35:00.249Z,86.00
2024-02-17T09:37:05.705Z,86.37
2024-02-17T09:39:09.010Z,87.94
2024-02-17T09:41:12.199Z,85.77
2024-02-17T09:43:15.415Z,85.29
2024-02-17T09:45:18.717Z,83.08
2024-02-17T09:47:22.318Z,81.08
2024-02-17T09:49:28.098Z,82.21
2024-02-17T09:51:31.802Z,84.51
2024-02-17T09:53:37.788Z,83.99
2024-02-17T09:55:42.832Z,83.06
2024-02-17T09:57:54.224Z,82.98
2024-02-17T09:59:58.648Z,82.84
2024-02-17T10:02:01.091Z,83.00
2024-02-17T10:04:05.450Z,82.31
2024-02-17T10:06:12.425Z,84.15
2024-02-17T10:08:15.876Z,83.75
2024-02-17T10:10:21.585Z,83.10
2024-02-17T10:12:25.724Z,80.49
2024-02-17T10:14:29.280Z,78.74
2024-02-17T10:16:33.661Z,79.70
2024-02-17T10:18:40.937Z,79.38
2024-02-17T10:20:44.900Z,78.89
2024-02-17T10:22:48.673Z,78.68
2024-02-17T10:24:51.912Z,77.75
2024-02-17T10:26:56.875Z,78.04
2024-02-17T10:29:01.258Z,79.08
2024-02-17T10:31:04.935Z,77.40
2024-02-17T10:33:11.321Z,78.79
2024-02-17T10:35:15.951Z,80.44
2024-02-17T10:37:19.405Z,81.92
2024-02-17T10:39:23.429Z,80.00
2024-02-17T10:41:27.918Z,80.54
2024-02-17T10:43:37.415Z,81.93
2024-02-17T10:45:40.031Z,81.56
2024-02-17T10:47:44.748Z,81.82
2024-02-17T10:49:49.715Z,80.00
2024-02-17T10:51:59.025Z,81.62
2024-02-17T10:54:03.576Z,79.86
2024-02-17T10:56:08.466Z,81.22
2024-02-17T10:58:17.097Z,82.63
2024-02-17T11:00:22.437Z,81.92
2024-02-17T11:02:29.783Z,83.70
2024-02-17T11:04:33.713Z,83.43
2024-02-17T11:06:39.249Z,81.94
2024-02-17T11:08:42.726Z,80.07
2024-02-17T11:10:46.307Z,78.90
2024-02-17T11:12:49.525Z,78.30
2024-02-17T11:14:52.884Z,79.98
2024-02-17T11:16:57.619Z,78.47
2024-02-17T11:19:01.880Z,78.72
2024-02-17T11:21:05.401Z,78.56
2024-02-17T11:23:08.956Z,76.69
2024-02-17T11:25:12.507Z,76.87
2024-02-17T11:27:16.090Z,74.94
2024-02-17T11:29:29.025Z,76.28
2024-02-17T11:31:32.771Z,76.72
2024-02-17T11:33:39.256Z,75.57
2024-02-17T11:35:43.495Z,74.05
2024-02-17T11:37:50.856Z,74.77
2024-02-17T11:39:54.088Z,74.63
2024-02-17T11:41:58.488Z,74.69
2024-02-17T11:44:03.856Z,74.02
2024-02-17T11:46:07.127Z,76.35
2024-02-17T11:48:10.521Z,75.20
2024-02-17T11:50:15.694Z,74.94
2024-02-17T11:52:21.777Z,75.59
2024-02-17T11:54:25.162Z,76.28
2024-02-17T11:56:28.502Z,76.09
2024-02-17T11:58:31.740Z,76.68
2024-02-17T12:00:39.203Z,75.42
2024-02-17T12:02:45.177Z,76.61
2024-02-17T12:04:48.432Z,75.30
2024-02-17T12:06:53.795Z,74.66
2024-02-17T12:08:56.983Z,73.05
2024-02-17T12:11:00.552Z,73.44
2024-02-17T12:13:02.799Z,74.04
2024-02-17T12:15:06.508Z,76.88
2024-02-17T12:17:10.209Z,76.21
2024-02-17T12:19:16.138Z,75.94
2024-02-17T12:21:19.696Z,74.88
2024-02-17T12:23:24.255Z,76.03
2024-02-17T12:25:28.833Z,76.68
2024-02-17T12:27:32.373Z,74.90
2024-02-17T12:29:35.574Z,73.53
2024-02-17T12:31:38.772Z,72.74
2024-02-17T12:33:49.169Z,72.06
2024-02-17T12:35:53.819Z,73.64
2024-02-17T12:37:58.074Z,74.81
2024-02-17T12:40:02.019Z,73.45
2024-02-17T12:42:06.932Z,75.52
2024-02-17T12:44:10.101Z,74.63
2024-02-17T12:46:21.102Z,75.51
2024-02-17T12:48:27.546Z,74.68
2024-02-17T12:50:31.265Z,74.65
2024-02-17T12:52:35.235Z,74.06
2024-02-17T12:54:38.797Z,73.99
2024-02-17T12:56:43.342Z,74.10
2024-02-17T12:58:46.971Z,74.21
2024-02-17T13:00:50.210Z,74.78
2024-02-17T13:02:54.687Z,74.79
2024-02-17T13:04:58.810Z,75.13
2024-02-17T13:07:02.397Z,73.99
2024-02-17T13:09:07.092Z,73.04
2024-02-17T13:11:10.399Z,73.35
2024-02-17T13:13:15.044Z,73.53
2024-02-17T13:15:21.572Z,73.15
2024-02-17T13:17:28.415Z,74.53
2024-02-17T13:19:32.086Z,75.21
2024-02-17T13:21:35.931Z,75.51
2024-02-17T13:23:39.102Z,74.79
2024-02-17T13:25:42.339Z,73.86
2024-02-17T13:27:46.838Z,74.30
2024-02-17T13:29:51.538Z,74.55
2024-02-17T13:31:54.803Z,74.87
2024-02-17T13:33:58.145Z,73.36
2024-02-17T13:36:01.476Z,75.75
2024-02-17T13:38:14.152Z,73.95
2024-02-17T13:40:25.503Z,76.38
2024-02-17T13:42:27.827Z,75.36
2024-02-17T13:44:31.089Z,76.60
2024-02-17T13:46:35.548Z,76.36
2024-02-17T13:48:38.923Z,76.22
2024-02-17T13:50:42.122Z,76.16
2024-02-17T13:52:45.308Z,76.50
2024-02-17T13:54:48.893Z,76.75
2024-02-17T13:56:52.257Z,76.28
2024-02-17T13:58:55.639Z,76.08
2024-02-17T14:00:58.990Z,77.99
2024-02-17T14:03:04.758Z,77.09
2024-02-17T14:05:07.495Z,78.03
2024-02-17T14:07:10.682Z,76.77
2024-02-17T14:09:13.902Z,76.67
2024-02-17T14:11:16.281Z,76.47
2024-02-17T14:13:19.618Z,76.39
2024-02-17T14:15:23.235Z,76.73
2024-02-17T14:17:28.443Z,75.74
2024-02-17T14:19:35.026Z,74.91
2024-02-17T14:21:38.922Z,76.42
2024-02-17T14:23:42.169Z,76.81
2024-02-17T14:25:46.001Z,77.01
2024-02-17T14:27:49.183Z,75.92
2024-02-17T14:29:56.772Z,78.04
2024-02-17T14:32:00.115Z,77.39
2024-02-17T14:34:03.427Z,76.23
2024-02-17T14:36:11.141Z,76.36
2024-02-17T14:38:15.523Z,75.88
2024-02-17T14:40:18.688Z,75.72
2024-02-17T14:42:22.022Z,75.98
2024-02-17T14:44:25.200Z,78.84
2024-02-17T14:46:35.474Z,77.80
2024-02-17T14:48:43.936Z,77.70
2024-02-17T14:50:47.877Z,79.86
2024-02-17T14:52:54.110Z,76.85
2024-02-17T14:54:57.489Z,77.90
2024-02-17T14:57:00.684Z,77.76
2024-02-17T14:59:04.315Z,78.03
2024-02-17T15:01:07.588Z,76.85
2024-02-17T15:03:10.908Z,78.17
2024-02-17T15:05:14.322Z,76.82
2024-02-17T15:07:19.343Z,76.87
2024-02-17T15:09:24.340Z,76.22
2024-02-17T15:11:27.547Z,77.97
2024-02-17T15:13:30.863Z,77.97
2024-02-17T15:15:34.127Z,76.72
2024-02-17T15:17:38.646Z,75.09
2024-02-17T15:19:41.564Z,75.11
2024-02-17T15:21:44.871Z,75.92
2024-02-17T15:23:48.391Z,74.01
2024-02-17T15:25:52.960Z,74.07
2024-02-17T15:27:57.205Z,74.30
2024-02-17T15:30:00.354Z,75.95
2024-02-17T15:32:03.586Z,76.77
2024-02-17T15:34:07.145Z,76.82
2024-02-17T15:36:12.018Z,76.31
2024-02-17T15:38:15.633Z,77.44
2024-02-17T15:40:18.721Z,76.53
2024-02-17T15:42:23.325Z,76.91
2024-02-17T15:44:26.450Z,76.33
2024-02-17T15:46:29.613Z,78.06
2024-02-17T15:48:34.446Z,76.85
2024-02-17T15:50:38.049Z,77.98
2024-02-17T15:52:41.186Z,77.23
2024-02-17T15:54:44.328Z,77.34
2024-02-17T15:56:47.500Z,79.02
2024-02-17T15:58:52.127Z,77.18
2024-02-17T16:00:57.945Z,76.93
2024-02-17T16:03:01.247Z,76.14
2024-02-17T16:05:04.613Z,77.34
2024-02-17T16:07:07.847Z,76.96
2024-02-17T16:09:11.400Z,77.36
2024-02-17T16:11:14.031Z,76.10
2024-02-17T16:13:18.886Z,77.98
2024-02-17T16:15:23.663Z,78.62
2024-02-17T16:17:27.192Z,78.67
2024-02-17T16:19:29.633Z,78.62
2024-02-17T16:21:36.181Z,78.03
2024-02-17T16:23:39.696Z,78.13
2024-02-17T16:25:42.895Z,78.98
2024-02-17T16:27:46.099Z,78.66
2024-02-17T16:29:49.374Z,79.31
2024-02-17T16:31:54.975Z,79.47
2024-02-17T16:33:58.538Z,78.76
2024-02-17T16:36:03.657Z,78.33
2024-02-17T16:38:07.239Z,79.42
2024-02-17T16:40:12.117Z,79.19
2024-02-17T16:42:15.432Z,78.60
2024-02-17T16:44:19.704Z,79.19
2024-02-17T16:46:22.931Z,78.78
2024-02-17T16:48:27.880Z,79.42
2024-02-17T16:50:31.175Z,79.95
2024-02-17T16:52:34.298Z,78.93
2024-02-17T16:54:36.566Z,80.70
2024-02-17T16:56:41.190Z,80.51
2024-02-17T16:58:44.916Z,80.69
2024-02-17T17:00:48.142Z,79.98
2024-02-17T17:02:50.875Z,80.45
2024-02-17T17:04:58.009Z,81.36
2024-02-17T17:07:02.202Z,80.70
2024-02-17T17:09:05.502Z,81.54
2024-02-17T17:11:08.764Z,81.01
2024-02-17T17:13:12.005Z,81.58
2024-02-17T17:15:15.433Z,81.50
2024-02-17T17:17:18.647Z,81.94
2024-02-17T17:19:21.993Z,81.91
2024-02-17T17:21:27.243Z,82.53
2024-02-17T17:23:30.413Z,81.29
2024-02-17T17:25:32.724Z,81.40
2024-02-17T17:27:36.218Z,81.15
2024-02-17T17:29:39.588Z,81.35
2024-02-17T17:31:43.033Z,81.55
2024-02-17T17:33:46.548Z,82.14
2024-02-17T17:35:50.172Z,81.97
2024-02-17T17:37:55.029Z,82.29
2024-02-17T17:39:58.274Z,82.35
2024-02-17T17:42:01.650Z,82.49
2024-02-17T17:44:04.192Z,82.15
2024-02-17T17:46:09.578Z,82.14
2024-02-17T17:48:13.458Z,82.69
2024-02-17T17:50:22.778Z,83.61
2024-02-17T17:52:26.325Z,84.42
2024-02-17T17:54:30.996Z,83.89
2024-02-17T17:56:35.888Z,84.74
2024-02-17T17:58:39.092Z,84.15
2024-02-17T18:00:42.522Z,85.13
2024-02-17T18:02:47.120Z,85.78
2024-02-17T18:04:50.536Z,86.27
2024-02-17T18:06:53.907Z,86.96
2024-02-17T18:08:58.452Z,87.11
2024-02-17T18:11:03.546Z,86.50
2024-02-17T18:13:06.982Z,86.68
2024-02-17T18:15:11.002Z,86.90
2024-02-17T18:17:14.302Z,87.95
2024-02-17T18:19:19.070Z,87.59
2024-02-17T18:21:23.473Z,88.04
2024-02-17T18:23:26.649Z,88.51
2024-02-17T18:25:29.826Z,88.16
2024-02-17T18:27:34.314Z,88.61
2024-02-17T18:29:37.425Z,88.42
2024-02-17T18:31:40.591Z,89.46
2024-02-17T18:33:45.168Z,88.46
2024-02-17T18:35:49.153Z,89.46
2024-02-17T18:37:52.731Z,89.89
2024-02-17T18:39:54.920Z,89.40
2024-02-17T18:41:58.342Z,89.37
2024-02-17T18:44:07.347Z,88.98
2024-02-17T18:46:11.442Z,88.88
2024-02-17T18:48:13.862Z,89.08
2024-02-17T18:50:17.495Z,89.11
2024-02-17T18:52:22.175Z,90.90
2024-02-17T18:54:25.442Z,90.37
2024-02-17T18:56:28.614Z,89.60
2024-02-17T18:58:30.808Z,90.26
2024-02-17T19:00:35.424Z,91.07
2024-02-17T19:02:38.699Z,90.28
2024-02-17T19:04:42.106Z,90.85
2024-02-17T19:06:45.384Z,90.53
2024-02-17T19:08:49.662Z,91.51
2024-02-17T19:10:52.908Z,91.64
2024-02-17T19:12:56.287Z,91.82
2024-02-17T19:14:59.509Z,92.18
2024-02-17T19:17:04.587Z,92.19
2024-02-17T19:19:07.999Z,91.87
2024-02-17T19:21:10.407Z,92.26
2024-02-17T19:23:18.566Z,91.23
2024-02-17T19:25:23.259Z,92.23
2024-02-17T19:27:26.458Z,92.68
2024-02-17T19:29:29.672Z,91.74
2024-02-17T19:31:33.124Z,92.59
2024-02-17T19:33:38.661Z,91.60
2024-02-17T19:35:42.419Z,92.40
2024-02-17T19:37:45.644Z,92.60
2024-02-17T19:39:49.041Z,93.14
2024-02-17T19:41:51.304Z,92.24
2024-02-17T19:43:54.715Z,92.46
2024-02-17T19:45:58.065Z,92.68
2024-02-17T19:48:01.619Z,93.96
2024-02-17T19:50:06.374Z,93.12
2024-02-17T19:52:09.769Z,92.80
2024-02-17T19:54:13.111Z,93.05
2024-02-17T19:56:17.492Z,92.08
2024-02-17T19:58:20.023Z,91.80
2024-02-17T20:00:23.240Z,92.81
2024-02-17T20:02:26.407Z,93.22
2024-02-17T20:04:30.305Z,92.90
2024-02-17T20:06:36.167Z,92.85
2024-02-17T20:08:39.438Z,91.87
2024-02-17T20:10:44.321Z,91.64
2024-02-17T20:12:47.736Z,92.47
2024-02-17T20:14:51.085Z,92.85
2024-02-17T20:16:55.896Z,93.39
2024-02-17T20:18:59.204Z,93.06
2024-02-17T20:21:06.730Z,94.04
2024-02-17T20:23:11.419Z,92.19
2024-02-17T20:25:14.627Z,94.15
2024-02-17T20:27:17.806Z,93.69
2024-02-17T20:29:21.016Z,93.55
2024-02-17T20:31:25.521Z,94.45
2024-02-17T20:33:30.212Z,94.48
2024-02-17T20:35:35.840Z,94.07
2024-02-17T20:37:39.049Z,94.36
2024-02-17T20:39:43.771Z,94.67
2024-02-17T20:41:51.891Z,93.41
2024-02-17T20:43:56.404Z,94.21
2024-02-17T20:45:59.651Z,92.66
2024-02-17T20:48:03.153Z,93.39
2024-02-17T20:50:07.876Z,93.58
2024-02-17T20:52:11.295Z,93.53
2024-02-17T20:54:17.836Z,94.86
2024-02-17T20:56:22.901Z,94.05
2024-02-17T20:58:26.168Z,95.15
2024-02-17T21:00:29.498Z,94.75
2024-02-17T21:02:38.068Z,94.13
2024-02-17T21:04:40.824Z,94.31
2024-02-17T21:06:44.186Z,94.61
2024-02-17T21:08:47.371Z,94.33
2024-02-17T21:10:50.684Z,93.78
2024-02-17T21:12:55.278Z,93.76
2024-02-17T21:14:57.709Z,94.13
2024-02-17T21:17:01.002Z,95.88
2024-02-17T21:19:03.749Z,95.43
2024-02-17T21:21:07.166Z,94.58
2024-02-17T21:23:10.744Z,94.23
2024-02-17T21:25:14.912Z,94.19
2024-02-17T21:27:18.831Z,94.21
2024-02-17T21:29:23.500Z,95.22
2024-02-17T21:31:25.966Z,94.89
2024-02-17T21:33:29.279Z,95.50
2024-02-17T21:35:32.591Z,94.88
2024-02-17T21:37:35.812Z,94.20
2024-02-17T21:39:39.528Z,95.13
2024-02-17T21:41:42.309Z,95.24
2024-02-17T21:43:45.590Z,95.54
2024-02-17T21:45:51.663Z,95.55
2024-02-17T21:47:55.101Z,95.43
2024-02-17T21:49:58.607Z,94.32
2024-02-17T21:52:02.167Z,96.35
2024-02-17T21:54:05.621Z,94.88
2024-02-17T21:56:09.332Z,96.00
2024-02-17T21:58:12.395Z,94.74
2024-02-17T22:00:16.353Z,94.94
2024-02-17T22:02:21.054Z,95.17
2024-02-17T22:04:24.418Z,95.65
2024-02-17T22:06:27.967Z,96.35
2024-02-17T22:08:31.194Z,95.78
2024-02-17T22:10:34.372Z,95.72
2024-02-17T22:12:37.577Z,95.81
2024-02-17T22:14:40.673Z,96.51
2024-02-17T22:16:43.772Z,95.76
2024-02-17T22:18:48.470Z,95.23
2024-02-17T22:20:51.758Z,95.84
2024-02-17T22:22:53.928Z,95.26
2024-02-17T22:24:57.422Z,96.48
2024-02-17T22:27:00.676Z,95.29
2024-02-17T22:29:06.144Z,95.21
2024-02-17T22:31:09.332Z,96.48
2024-02-17T22:33:12.888Z,95.67
2024-02-17T22:35:17.503Z,95.47
2024-02-17T22:37:20.656Z,96.36
2024-02-17T22:39:24.629Z,95.22
2024-02-17T22:41:28.095Z,96.31
2024-02-17T22:43:31.522Z,96.21
2024-02-17T22:45:34.655Z,96.77
2024-02-17T22:47:37.881Z,95.55
2024-02-17T22:49:40.103Z,96.80
2024-02-17T22:51:44.695Z,96.45
2024-02-17T22:53:47.924Z,96.02
2024-02-17T22:55:51.404Z,95.74
2024-02-17T22:57:54.706Z,95.41
2024-02-17T22:59:57.998Z,95.63
2024-02-17T23:02:01.229Z,95.94
2024-02-17T23:04:06.303Z,95.88
2024-02-17T23:06:10.730Z,97.40
2024-02-17T23:08:15.637Z,95.64
2024-02-17T23:10:19.082Z,96.49
2024-02-17T23:12:22.474Z,96.53
2024-02-17T23:14:25.917Z,96.54
2024-02-17T23:16:29.316Z,97.98
2024-02-17T23:18:32.805Z,97.66
2024-02-17T23:20:36.146Z,96.39
2024-02-17T23:22:38.325Z,97.25
2024-02-17T23:24:44.073Z,97.52
2024-02-17T23:26:47.261Z,96.04
2024-02-17T23:28:50.450Z,96.06
2024-02-17T23:30:53.685Z,97.20
2024-02-17T23:32:57.389Z,96.14
2024-02-17T23:34:59.797Z,97.90
2024-02-17T23:37:03.457Z,97.05
2024-02-17T23:39:07.004Z,96.85
2024-02-17T23:41:11.684Z,97.37
2024-02-17T23:43:14.916Z,96.30
2024-02-17T23:45:20.738Z,97.23
2024-02-17T23:47:23.996Z,96.54
2024-02-17T23:49:28.089Z,96.88
2024-02-17T23:51:31.521Z,97.37
2024-02-17T23:53:35.116Z,96.35
2024-02-17T23:55:38.243Z,98.54
2024-02-17T23:57:42.877Z,97.50
2024-02-17T23:59:46.296Z,97.46
